Rechercher aéroport 
image banner adimage banner adimage banner ad
image banner ad

00CA - Goldstone /Gts/

Situé à Barstow, United States

ICAO - 00CA, IATA -

Données fournies par Airmate  

Information générale

Coordonnées: N35°21'18" W116°53'7"
Élévation : 3038 feet MSL.
Variation magnétique : 14° East
Voir autres Aéroports à California

Données opérationnelles

Special qualification required
Heure actuelle UTC:
Heure actuelle locale:
Météo à : KBYS - Bicycle Lake Aaf ( 25 km )
METAR: KBYS 020558Z AUTO 27018G24KT 10SM CLR 32/M01 A3003 RMK AO2 SLP136 T03151014 10386 20307 52012 $
Voir NOTAMs / SUP AIP / TFR affectant cet aéroport [VIEW]
Fréquences de communication: [VIEW]

Pistes:

Identifiant RWYQFULongueur (ft)Largeur (ft)SurfaceLDA (ft)
04600080ASPH
22600080ASPH

Coordonnées de l'aéroport

Adresse: Barstow United States

Vue satellite de 00CA